ETIH

Hohenfels Army Air Field Airport

Germany
METAR ETIH 170008Z AUTO 00000KT 9999 -RA OVC013 01/01 A2999 RMK AO2 RAE02RAB08 SLP179 $
Observed Flight Rules
Dec-17 @ 00:08 UTC (21 minutes ago) Marginal Visual Flight Rules
Wind Visibility Clouds Conditions
Calm 10,000+ meters
  • Overcast at 1,300' AGL
  • Light Rain
Temperatures Readings
Current 1°C / 34°F
Dewpoint 1°C / 34°F
Humidity 100%
Altimeter 29.99" Hg
Pressure 1017.9 hPa
Elevation 442
METAR ETIH 170008Z AUTO 00000KT 9999 -RA OVC013 01/01 A2999 RMK AO2 RAE02RAB08 SLP179 $
Observed Flight Rules
Dec-17 @ 00:08 UTC
(21 minutes ago)
MVFR
Wind Visibility
Calm 10,000+ meters
Clouds
  • Overcast at 1,300' AGL
Conditions
  • Light Rain
Temperature Dewpoint
1°C / 34°F 1°C / 34°F
Humidity Altimeter Pressure
100% 29.99" Hg 1017.9 hPa